createdAt,value
2023-03-23T15:59:13.459Z,8.52
2023-03-23T16:01:42.935Z,10.55
2023-03-23T16:04:18.207Z,8.00
2023-03-23T16:06:46.915Z,8.52
2023-03-23T16:09:17.181Z,9.15
2023-03-23T16:11:45.553Z,9.13
2023-03-23T16:14:14.627Z,7.20
2023-03-23T16:16:49.688Z,16.70
2023-03-23T16:19:24.589Z,5.53
2023-03-23T16:21:53.064Z,8.23
2023-03-23T16:24:21.752Z,6.95
2023-03-23T16:26:50.175Z,6.70
2023-03-23T16:29:39.921Z,6.60
2023-03-23T16:32:07.767Z,7.43
2023-03-23T16:34:38.519Z,7.78
2023-03-23T16:37:07.579Z,5.90
2023-03-23T16:39:36.236Z,6.88
2023-03-23T16:42:04.773Z,8.77
2023-03-23T16:44:33.597Z,8.52
2023-03-23T16:47:05.764Z,9.38
2023-03-23T16:49:34.485Z,7.18
2023-03-23T16:52:04.421Z,6.90
2023-03-23T16:54:33.045Z,33.10
2023-03-23T16:57:01.566Z,15.75
2023-03-23T16:59:30.434Z,9.40
2023-03-23T17:02:03.605Z,13.43
2023-03-23T17:04:33.163Z,14.05
2023-03-23T17:07:01.810Z,8.88
2023-03-23T17:09:31.916Z,7.88
2023-03-23T17:12:00.449Z,8.93
2023-03-23T17:14:29.411Z,9.90
2023-03-23T17:16:58.099Z,10.15
2023-03-23T17:19:27.048Z,23.38
2023-03-23T17:21:55.466Z,18.05
2023-03-23T17:24:24.223Z,69.45
2023-03-23T17:26:53.920Z,18.05
2023-03-23T17:29:23.141Z,32.58
2023-03-23T17:31:51.961Z,25.85
2023-03-23T17:34:20.984Z,17.75
2023-03-23T17:36:49.401Z,14.02
2023-03-23T17:39:18.222Z,14.68
2023-03-23T17:41:46.464Z,27.00
2023-03-23T17:44:17.112Z,30.25
2023-03-23T17:46:46.103Z,37.17
2023-03-23T17:49:15.191Z,37.08
2023-03-23T17:51:44.588Z,34.78
2023-03-23T17:54:13.314Z,29.75
2023-03-23T17:56:41.599Z,22.55
2023-03-23T17:59:10.337Z,12.38
2023-03-23T18:01:40.214Z,13.50
2023-03-23T18:04:08.836Z,15.18
2023-03-23T18:06:37.109Z,21.00
2023-03-23T18:09:06.677Z,21.17
2023-03-23T18:11:35.134Z,21.63
2023-03-23T18:14:03.868Z,21.60
2023-03-23T18:16:32.245Z,23.17
2023-03-23T18:19:02.507Z,19.73
2023-03-23T18:21:30.890Z,16.20
2023-03-23T18:24:00.170Z,17.52
2023-03-23T18:26:29.475Z,21.45
2023-03-23T18:28:58.223Z,23.20
2023-03-23T18:31:26.899Z,23.05
2023-03-23T18:33:56.082Z,22.75
2023-03-23T18:36:27.810Z,20.55
2023-03-23T18:38:57.860Z,17.90
2023-03-23T18:41:26.507Z,19.75
2023-03-23T18:43:57.505Z,20.27
2023-03-23T18:46:26.640Z,18.23
2023-03-23T18:48:55.807Z,18.02
2023-03-23T18:51:26.322Z,19.15
2023-03-23T18:53:55.219Z,22.52
2023-03-23T18:56:23.761Z,25.65
2023-03-23T18:58:53.813Z,22.30
2023-03-23T19:01:22.657Z,24.60
2023-03-23T19:03:52.188Z,28.58
2023-03-23T19:06:23.794Z,27.85
2023-03-23T19:08:54.992Z,26.90
2023-03-23T19:11:25.585Z,27.67
2023-03-23T19:16:32.595Z,28.85
2023-03-23T19:19:01.980Z,29.25
2023-03-23T19:21:31.998Z,29.60
2023-03-23T19:24:03.414Z,29.95
2023-03-23T19:26:36.959Z,30.27
2023-03-23T19:31:39.380Z,32.90
2023-03-23T19:34:08.833Z,32.00
2023-03-23T19:36:37.426Z,29.58
2023-03-23T19:39:10.069Z,31.20
2023-03-23T19:41:39.022Z,30.90
2023-03-23T19:44:08.702Z,28.13
2023-03-23T19:46:37.395Z,28.40
2023-03-23T19:49:07.617Z,25.63
2023-03-23T19:51:36.784Z,27.67
2023-03-23T19:54:07.359Z,26.90
2023-03-23T19:56:38.391Z,28.63
2023-03-23T19:59:09.762Z,28.38
2023-03-23T20:01:38.474Z,24.95
2023-03-23T20:04:07.532Z,26.38
2023-03-23T20:06:36.659Z,24.15
2023-03-23T20:09:07.476Z,28.90
2023-03-23T20:11:38.078Z,26.08
2023-03-23T20:14:07.399Z,27.67
2023-03-23T20:16:36.891Z,25.40
2023-03-23T20:19:06.148Z,22.92
2023-03-23T20:21:34.705Z,25.38
2023-03-23T20:24:03.521Z,24.90
2023-03-23T20:26:33.582Z,25.70
2023-03-23T20:29:04.605Z,24.73
2023-03-23T20:31:36.729Z,21.80
2023-03-23T20:34:11.373Z,22.20
2023-03-23T20:36:42.411Z,24.42
2023-03-23T20:41:41.320Z,21.90
2023-03-23T20:44:15.959Z,20.77
2023-03-23T20:46:45.158Z,17.40
2023-03-23T20:49:14.167Z,18.38
2023-03-23T20:51:43.868Z,16.13
2023-03-23T20:54:14.412Z,15.83
2023-03-23T20:56:43.398Z,14.10
2023-03-23T20:59:14.631Z,16.05
2023-03-23T21:01:43.264Z,17.75
2023-03-23T21:04:18.173Z,14.00
2023-03-23T21:06:49.070Z,14.75
2023-03-23T21:09:19.093Z,13.65
2023-03-23T21:11:47.677Z,12.85
2023-03-23T21:14:17.744Z,16.05
2023-03-23T21:16:46.593Z,17.52
2023-03-23T21:19:15.946Z,14.32
2023-03-23T21:21:56.645Z,15.38
2023-03-23T21:24:28.240Z,15.30
2023-03-23T21:27:03.045Z,18.02
2023-03-23T21:29:33.454Z,16.88
2023-03-23T21:32:08.327Z,15.57
2023-03-23T21:34:38.258Z,15.35
2023-03-23T21:37:06.706Z,16.20
2023-03-23T21:39:35.829Z,15.65
2023-03-23T21:42:04.820Z,18.90
2023-03-23T21:44:35.969Z,16.85
2023-03-23T21:47:04.806Z,17.13
2023-03-23T21:49:33.594Z,15.35
2023-03-23T21:52:02.352Z,15.63
2023-03-23T21:54:31.633Z,11.95
2023-03-23T21:57:00.761Z,18.85
2023-03-23T21:59:29.504Z,14.38
2023-03-23T22:01:59.252Z,13.40
2023-03-23T22:04:28.246Z,13.23
2023-03-23T22:06:57.354Z,18.10
2023-03-23T22:09:26.402Z,14.20
2023-03-23T22:11:54.719Z,11.75
2023-03-23T22:14:23.897Z,15.02
2023-03-23T22:16:52.223Z,10.65
2023-03-23T22:19:22.469Z,12.82
2023-03-23T22:21:50.790Z,11.50
2023-03-23T22:24:19.835Z,13.65
2023-03-23T22:26:48.536Z,9.30
2023-03-23T22:29:18.369Z,10.32
2023-03-23T22:31:46.907Z,13.75
2023-03-23T22:34:15.780Z,10.00
2023-03-23T22:36:45.495Z,8.52
2023-03-23T22:39:14.124Z,9.70
2023-03-23T22:41:43.474Z,9.27
2023-03-23T22:44:13.848Z,9.60
2023-03-23T22:46:42.619Z,9.20
2023-03-23T22:49:13.164Z,9.00
2023-03-23T22:51:41.967Z,15.55
2023-03-23T22:54:13.092Z,9.07
2023-03-23T22:56:41.506Z,9.63
2023-03-23T22:59:11.155Z,10.65
2023-03-23T23:01:39.486Z,8.50
2023-03-23T23:04:08.207Z,9.93
2023-03-23T23:06:36.817Z,9.20
2023-03-23T23:09:06.487Z,8.25
2023-03-23T23:11:36.300Z,10.00
2023-03-23T23:14:05.155Z,9.32
2023-03-23T23:16:33.543Z,9.38
2023-03-23T23:19:02.256Z,9.27
2023-03-23T23:21:30.548Z,9.57
2023-03-23T23:23:59.094Z,10.55
2023-03-23T23:26:27.686Z,11.80
2023-03-23T23:28:57.966Z,13.73
2023-03-23T23:31:29.303Z,12.60
2023-03-23T23:33:59.503Z,9.48
2023-03-23T23:36:30.462Z,10.02
2023-03-23T23:41:30.123Z,11.10
2023-03-23T23:44:00.606Z,10.80
2023-03-23T23:46:30.727Z,9.80
2023-03-23T23:49:00.249Z,8.03
2023-03-23T23:51:29.091Z,8.95
2023-03-23T23:54:01.675Z,8.77
2023-03-23T23:56:30.396Z,8.45
2023-03-23T23:59:00.744Z,7.25
